Time;durP1;ratioP1;P1;durP2;ratioP2;P2;SDS_P1;SDS_P2;PMS_P1;PMS_P2;Temp;Humidity;BMP_temperature;BMP_pressure;BME280_temperature;BME280_humidity;BME280_pressure;Samples;Min_cycle;Max_cycle;Signal;HPM_P1;HPM_P2
2021/07/27 00:00:38;;;;;;;40.10;21.77;;;18.20;99.90;;;;;;5039068;28;20291;-50
2021/07/27 00:03:05;;;;;;;38.40;22.47;;;18.30;99.90;;;;;;5038760;28;20704;-50
2021/07/27 00:05:33;;;;;;;39.20;22.70;;;18.20;99.90;;;;;;5038403;28;20233;-50
2021/07/27 00:08:19;;;;;;;34.87;21.47;;;18.20;99.90;;;;;;5038686;28;20650;-50
2021/07/27 00:10:46;;;;;;;40.87;24.00;;;18.20;99.90;;;;;;5041239;28;20295;-49
2021/07/27 00:13:13;;;;;;;43.43;24.07;;;18.30;99.90;;;;;;5036169;28;20310;-50
2021/07/27 00:15:40;;;;;;;42.53;24.43;;;18.20;99.90;;;;;;5038009;28;20307;-50
2021/07/27 00:18:07;;;;;;;41.47;23.97;;;18.20;99.90;;;;;;5038308;28;20389;-50
2021/07/27 00:20:35;;;;;;;41.10;25.10;;;18.30;99.90;;;;;;5041639;28;20347;-50
2021/07/27 00:23:02;;;;;;;42.73;23.50;;;18.20;99.90;;;;;;5041346;28;20351;-50
2021/07/27 00:25:29;;;;;;;41.47;23.87;;;18.20;99.90;;;;;;5040763;28;20249;-51
2021/07/27 00:27:56;;;;;;;40.83;24.47;;;18.30;99.90;;;;;;5039179;28;20282;-51
2021/07/27 00:30:23;;;;;;;44.43;23.97;;;18.20;99.90;;;;;;5038651;28;20295;-51
2021/07/27 00:32:50;;;;;;;44.23;25.90;;;18.20;99.90;;;;;;5038283;28;20274;-50
2021/07/27 00:35:17;;;;;;;40.20;24.87;;;18.20;99.90;;;;;;5039617;28;20214;-50
2021/07/27 00:37:46;;;;;;;47.87;26.27;;;18.20;99.90;;;;;;5039307;28;20353;-50
2021/07/27 00:40:13;;;;;;;42.43;25.00;;;18.20;99.90;;;;;;5039575;28;20265;-50
2021/07/27 00:42:47;;;;;;;46.60;27.60;;;18.20;99.90;;;;;;5039196;28;20388;-50
2021/07/27 00:45:15;;;;;;;43.97;25.60;;;18.20;99.90;;;;;;5041444;28;20196;-51
2021/07/27 00:47:42;;;;;;;46.73;26.23;;;18.20;99.90;;;;;;5038569;28;20365;-51
2021/07/27 00:50:10;;;;;;;48.13;26.47;;;18.30;99.90;;;;;;5035785;28;21129;-51
2021/07/27 00:52:39;;;;;;;43.17;24.40;;;18.20;99.90;;;;;;5038820;28;20330;-52
2021/07/27 00:55:07;;;;;;;42.97;24.93;;;18.20;99.90;;;;;;5040155;28;20238;-51
2021/07/27 00:57:34;;;;;;;43.63;24.40;;;18.30;99.90;;;;;;5038102;28;20208;-50
2021/07/27 01:00:01;;;;;;;43.27;24.70;;;18.30;99.90;;;;;;5040624;28;20320;-52
2021/07/27 01:02:30;;;;;;;45.80;26.77;;;18.20;99.90;;;;;;5037923;28;20259;-50
2021/07/27 01:04:58;;;;;;;41.67;24.70;;;18.30;99.90;;;;;;5038890;28;20874;-51
2021/07/27 01:07:26;;;;;;;38.60;23.17;;;18.30;99.90;;;;;;5039569;28;20276;-50
2021/07/27 01:09:54;;;;;;;39.67;23.67;;;18.50;99.90;;;;;;5046723;28;20201;-51
2021/07/27 01:12:21;;;;;;;47.37;25.70;;;18.50;99.90;;;;;;5042006;28;20235;-50
2021/07/27 01:14:48;;;;;;;45.00;25.57;;;18.50;99.90;;;;;;5038629;28;20539;-51
2021/07/27 01:17:15;;;;;;;46.90;25.50;;;18.50;99.90;;;;;;5037704;28;20195;-51
2021/07/27 01:19:54;;;;;;;47.13;25.97;;;18.50;99.90;;;;;;5033886;28;20602;-51
2021/07/27 01:44:07;;;;;;;48.33;25.33;;;18.40;99.90;;;;;;5036849;28;20273;-50
2021/07/27 01:46:35;;;;;;;41.70;24.03;;;18.30;99.90;;;;;;5038043;28;20201;-51
2021/07/27 01:49:02;;;;;;;49.67;25.23;;;18.30;99.90;;;;;;5036183;28;20206;-51
2021/07/27 01:51:31;;;;;;;38.90;24.10;;;18.30;99.90;;;;;;5035001;28;20315;-50
2021/07/27 01:54:01;;;;;;;41.50;24.10;;;18.30;99.90;;;;;;5034894;28;20206;-51
2021/07/27 01:56:31;;;;;;;43.70;23.67;;;18.30;99.90;;;;;;5034050;28;22445;-51
2021/07/27 01:58:59;;;;;;;40.30;23.30;;;18.30;99.90;;;;;;5037936;28;20228;-51
2021/07/27 02:01:27;;;;;;;45.60;24.20;;;18.30;99.90;;;;;;5037657;28;20369;-51
2021/07/27 02:03:56;;;;;;;44.13;24.60;;;18.20;99.90;;;;;;5035308;28;20237;-51
2021/07/27 02:06:23;;;;;;;42.37;22.03;;;18.20;99.90;;;;;;5016854;28;20646;-51
2021/07/27 02:08:50;;;;;;;49.77;24.33;;;18.20;99.90;;;;;;5038114;28;20312;-50
2021/07/27 02:11:20;;;;;;;43.80;23.60;;;18.20;99.90;;;;;;5039040;28;20291;-50
2021/07/27 02:13:52;;;;;;;38.60;22.53;;;18.10;99.90;;;;;;5036498;28;20235;-51
2021/07/27 02:16:19;;;;;;;37.93;23.00;;;18.10;99.90;;;;;;5038561;28;20206;-51
2021/07/27 02:18:46;;;;;;;41.20;23.53;;;18.10;99.90;;;;;;5036858;28;20219;-50
2021/07/27 02:21:13;;;;;;;41.57;22.50;;;18.10;99.90;;;;;;5039209;28;20567;-51
2021/07/27 02:23:40;;;;;;;40.87;22.50;;;17.90;99.90;;;;;;5038403;28;20291;-51
2021/07/27 02:26:08;;;;;;;39.07;23.23;;;18.00;99.90;;;;;;5034847;28;20289;-51
2021/07/27 02:28:35;;;;;;;35.03;21.97;;;18.00;99.90;;;;;;5033314;28;20251;-51
2021/07/27 02:31:03;;;;;;;37.20;21.87;;;18.00;99.90;;;;;;5035061;28;20571;-50
2021/07/27 02:33:37;;;;;;;36.10;21.50;;;18.00;99.90;;;;;;5034812;28;20300;-51
2021/07/27 02:36:04;;;;;;;37.33;20.87;;;18.00;99.90;;;;;;5038784;28;20334;-51
2021/07/27 02:38:31;;;;;;;35.83;22.17;;;17.90;99.90;;;;;;5033307;28;20558;-51
2021/07/27 02:40:58;;;;;;;39.93;21.30;;;17.80;99.90;;;;;;5034858;28;20224;-51
2021/07/27 02:43:24;;;;;;;33.97;20.67;;;17.90;99.90;;;;;;5037173;28;20227;-51
2021/07/27 02:45:51;;;;;;;37.73;20.70;;;17.70;99.90;;;;;;5037367;28;20236;-51
2021/07/27 02:48:18;;;;;;;36.97;20.47;;;17.80;99.90;;;;;;5035473;28;20230;-50
2021/07/27 02:50:46;;;;;;;33.80;19.73;;;17.80;99.90;;;;;;5034691;28;20251;-50
2021/07/27 02:53:14;;;;;;;29.77;19.87;;;17.80;99.90;;;;;;5036190;28;20706;-51
2021/07/27 02:55:42;;;;;;;33.00;20.47;;;17.70;99.90;;;;;;5039082;28;20292;-51
2021/07/27 02:58:15;;;;;;;33.63;21.27;;;17.70;99.90;;;;;;5037769;28;20207;-51
2021/07/27 03:00:41;;;;;;;34.63;19.73;;;17.80;99.90;;;;;;5038566;28;20246;-50
2021/07/27 03:03:08;;;;;;;32.03;21.03;;;17.80;99.90;;;;;;5034905;28;20712;-51
2021/07/27 03:05:35;;;;;;;31.80;18.77;;;17.80;99.90;;;;;;5037641;28;20200;-50
2021/07/27 03:08:11;;;;;;;32.03;19.03;;;17.80;99.90;;;;;;5038082;28;20232;-50
2021/07/27 03:10:38;;;;;;;33.87;18.33;;;17.90;99.90;;;;;;5037673;28;20296;-50
2021/07/27 03:13:05;;;;;;;28.90;19.97;;;17.80;99.90;;;;;;5036951;28;20343;-50
2021/07/27 03:15:31;;;;;;;30.47;18.73;;;17.90;99.90;;;;;;5039440;28;20291;-50
2021/07/27 03:17:59;;;;;;;31.07;20.00;;;17.70;99.90;;;;;;5036258;28;20335;-51
2021/07/27 03:20:28;;;;;;;27.90;17.23;;;17.80;99.90;;;;;;5037691;28;20248;-51
2021/07/27 03:22:56;;;;;;;31.63;18.23;;;17.80;99.90;;;;;;5043465;28;20323;-51
2021/07/27 03:25:23;;;;;;;25.47;17.27;;;17.80;99.90;;;;;;5039168;28;20741;-51
2021/07/27 03:27:51;;;;;;;28.07;17.67;;;17.60;99.90;;;;;;5039073;28;20293;-51
2021/07/27 03:30:19;;;;;;;25.53;16.47;;;17.60;99.90;;;;;;5038107;28;20312;-50
2021/07/27 03:32:48;;;;;;;28.47;17.67;;;17.70;99.90;;;;;;5038364;28;20309;-51
2021/07/27 03:35:18;;;;;;;25.17;17.07;;;17.60;99.90;;;;;;5039939;28;20215;-51
2021/07/27 03:37:45;;;;;;;25.43;16.40;;;17.60;99.90;;;;;;5035625;28;20303;-51
2021/07/27 03:40:13;;;;;;;25.97;16.43;;;17.60;99.90;;;;;;5041392;28;20258;-50
2021/07/27 03:42:40;;;;;;;25.60;16.70;;;17.50;99.90;;;;;;5040766;28;20290;-50
2021/07/27 03:45:07;;;;;;;28.73;16.43;;;17.50;99.90;;;;;;5038423;28;20222;-51
2021/07/27 03:47:34;;;;;;;27.00;17.07;;;17.30;99.90;;;;;;5031881;28;20631;-51
2021/07/27 03:50:01;;;;;;;26.67;16.37;;;17.30;99.90;;;;;;5037827;28;20206;-51
2021/07/27 03:52:28;;;;;;;27.60;15.73;;;17.30;99.90;;;;;;5042640;28;20203;-50
2021/07/27 03:54:55;;;;;;;28.27;16.93;;;17.30;99.90;;;;;;5038617;28;20202;-51
2021/07/27 03:57:22;;;;;;;29.33;16.47;;;17.30;99.90;;;;;;5040658;28;20296;-51
2021/07/27 03:59:49;;;;;;;28.00;16.13;;;17.40;99.90;;;;;;5040349;28;20227;-51
2021/07/27 04:02:16;;;;;;;25.83;16.07;;;17.40;99.90;;;;;;5038747;28;20320;-51
2021/07/27 04:04:43;;;;;;;28.30;16.60;;;17.40;99.90;;;;;;5037365;28;20218;-50
2021/07/27 04:07:10;;;;;;;26.10;14.93;;;17.30;99.90;;;;;;5042793;28;20621;-51
2021/07/27 04:09:38;;;;;;;28.83;16.37;;;17.40;99.90;;;;;;5040797;28;20301;-50
2021/07/27 04:12:05;;;;;;;22.80;14.70;;;17.40;99.90;;;;;;5039380;28;20338;-51
2021/07/27 04:14:34;;;;;;;23.77;15.47;;;17.40;99.90;;;;;;5037935;28;20566;-51
2021/07/27 04:17:01;;;;;;;24.37;16.13;;;17.20;99.90;;;;;;5037594;28;20206;-51
2021/07/27 04:19:28;;;;;;;22.90;14.87;;;17.10;99.90;;;;;;5037078;28;20322;-50
2021/07/27 04:21:55;;;;;;;22.47;14.80;;;17.10;99.90;;;;;;5039707;28;20305;-51
2021/07/27 04:24:22;;;;;;;22.67;15.00;;;17.20;99.90;;;;;;5039607;28;20551;-51
2021/07/27 04:26:49;;;;;;;22.13;14.27;;;17.30;99.90;;;;;;5036602;28;20303;-51
2021/07/27 04:29:19;;;;;;;24.23;15.50;;;17.30;99.90;;;;;;5039775;28;20230;-51
2021/07/27 04:31:49;;;;;;;23.67;14.53;;;17.20;99.90;;;;;;5034616;28;20639;-51
2021/07/27 04:34:16;;;;;;;23.20;14.07;;;17.30;99.90;;;;;;5038481;28;20631;-51
2021/07/27 04:36:43;;;;;;;22.90;14.70;;;17.30;99.90;;;;;;5033479;28;20302;-51
2021/07/27 04:39:10;;;;;;;24.30;15.03;;;17.20;99.90;;;;;;5036700;28;20213;-51
2021/07/27 04:41:37;;;;;;;26.10;14.93;;;17.30;99.90;;;;;;5041887;28;20224;-51
2021/07/27 04:44:06;;;;;;;25.67;14.67;;;17.30;99.90;;;;;;5035812;28;20537;-51
2021/07/27 04:46:34;;;;;;;24.17;14.80;;;17.30;99.90;;;;;;5039099;28;20200;-50
2021/07/27 04:49:01;;;;;;;27.63;14.73;;;17.40;99.90;;;;;;5038649;28;20208;-50
2021/07/27 04:51:30;;;;;;;24.67;15.00;;;17.50;99.90;;;;;;5038583;28;20301;-50
2021/07/27 04:54:05;;;;;;;22.63;14.47;;;17.50;99.90;;;;;;5041274;28;20246;-50
2021/07/27 04:56:35;;;;;;;25.03;14.53;;;17.50;99.90;;;;;;5044375;28;20205;-50
2021/07/27 04:59:02;;;;;;;25.80;14.23;;;17.60;99.90;;;;;;5039402;28;20398;-50
2021/07/27 05:01:28;;;;;;;26.17;14.77;;;17.50;99.90;;;;;;5042587;28;20403;-50
2021/07/27 05:03:56;;;;;;;23.93;14.60;;;17.60;99.90;;;;;;5037054;28;20264;-51
2021/07/27 05:06:23;;;;;;;23.43;13.90;;;17.50;99.90;;;;;;5042203;28;20234;-51
2021/07/27 05:08:50;;;;;;;23.20;14.37;;;17.60;99.90;;;;;;5038594;28;20201;-51
2021/07/27 05:11:17;;;;;;;21.43;13.57;;;17.50;99.90;;;;;;5035225;28;20390;-51
2021/07/27 05:13:44;;;;;;;21.87;14.40;;;17.60;99.90;;;;;;5031319;28;20234;-50
2021/07/27 05:16:10;;;;;;;28.03;14.50;;;17.60;99.90;;;;;;5036992;28;20393;-51
2021/07/27 05:18:37;;;;;;;23.50;14.77;;;17.50;99.90;;;;;;5037486;28;20290;-50
2021/07/27 05:21:04;;;;;;;22.23;14.03;;;17.50;99.90;;;;;;5036768;28;20237;-51
2021/07/27 05:23:31;;;;;;;21.03;14.87;;;17.50;99.90;;;;;;5054348;28;20260;-50
2021/07/27 05:25:58;;;;;;;24.97;14.63;;;17.70;99.90;;;;;;5039819;28;20295;-50
2021/07/27 05:28:26;;;;;;;26.13;15.93;;;17.60;99.90;;;;;;5033436;28;20286;-51
2021/07/27 05:30:53;;;;;;;25.03;14.90;;;17.70;99.90;;;;;;5036162;28;20289;-51
2021/07/27 05:33:19;;;;;;;20.87;13.87;;;17.80;99.90;;;;;;5020870;28;20300;-51
2021/07/27 05:35:46;;;;;;;25.03;14.10;;;17.90;99.90;;;;;;5037762;28;20311;-51
2021/07/27 05:38:13;;;;;;;22.60;15.13;;;17.90;99.90;;;;;;5041053;28;20318;-51
2021/07/27 05:40:40;;;;;;;22.13;14.00;;;18.00;99.90;;;;;;5040287;28;20289;-51
2021/07/27 05:43:07;;;;;;;22.17;14.70;;;18.10;99.90;;;;;;5041691;28;20303;-51
2021/07/27 05:45:33;;;;;;;23.93;14.37;;;18.20;99.90;;;;;;5040320;28;20196;-51
2021/07/27 05:48:03;;;;;;;23.40;14.07;;;18.30;99.90;;;;;;5043729;28;20668;-51
2021/07/27 05:50:30;;;;;;;22.67;14.57;;;18.20;99.90;;;;;;5043649;28;20279;-51
2021/07/27 05:52:57;;;;;;;21.27;13.50;;;18.20;99.90;;;;;;5041891;28;20334;-51
2021/07/27 05:55:24;;;;;;;22.03;13.90;;;18.20;99.90;;;;;;5042251;28;20208;-51
2021/07/27 05:57:51;;;;;;;19.13;13.00;;;18.30;99.90;;;;;;5045463;28;20739;-51
2021/07/27 06:00:18;;;;;;;21.10;13.60;;;18.30;99.90;;;;;;5034913;28;21023;-51
2021/07/27 06:02:45;;;;;;;21.63;14.10;;;18.20;99.90;;;;;;5037528;28;20319;-50
2021/07/27 06:05:12;;;;;;;22.30;13.97;;;18.30;99.90;;;;;;5044504;28;20224;-51
2021/07/27 06:07:39;;;;;;;20.67;13.40;;;18.30;99.90;;;;;;5040078;28;20203;-50
2021/07/27 06:10:06;;;;;;;22.73;14.17;;;18.20;99.90;;;;;;5043790;28;20589;-51
2021/07/27 06:12:34;;;;;;;20.60;14.57;;;18.30;99.90;;;;;;5043820;28;20221;-51
2021/07/27 06:15:01;;;;;;;21.23;15.30;;;18.40;99.90;;;;;;5039255;28;20680;-51
2021/07/27 06:17:28;;;;;;;21.30;14.10;;;18.30;99.90;;;;;;5035779;28;20201;-51
2021/07/27 06:19:55;;;;;;;22.80;14.73;;;18.20;99.90;;;;;;5037661;28;20265;-51
2021/07/27 06:22:22;;;;;;;25.37;15.87;;;18.20;99.90;;;;;;5036677;28;20595;-51
2021/07/27 06:24:49;;;;;;;25.03;15.47;;;18.30;99.90;;;;;;5033190;28;20206;-51
2021/07/27 06:27:16;;;;;;;22.63;14.97;;;18.30;99.90;;;;;;5036538;28;20231;-51
2021/07/27 06:29:43;;;;;;;24.90;15.17;;;18.40;99.90;;;;;;5037953;28;20305;-51
2021/07/27 06:32:10;;;;;;;24.57;15.47;;;18.40;99.90;;;;;;5037903;28;20394;-51
2021/07/27 06:34:37;;;;;;;24.87;15.73;;;18.50;99.90;;;;;;5036868;28;20283;-51
2021/07/27 06:37:03;;;;;;;23.77;14.77;;;18.60;99.90;;;;;;5034602;28;20269;-51
2021/07/27 06:39:30;;;;;;;24.17;14.83;;;18.60;99.90;;;;;;5032874;28;20874;-51
2021/07/27 06:41:57;;;;;;;23.87;15.00;;;18.60;99.90;;;;;;5033354;28;20260;-50
2021/07/27 06:44:24;;;;;;;22.90;14.40;;;18.70;99.90;;;;;;5033976;28;20720;-51
2021/07/27 06:46:53;;;;;;;24.27;15.67;;;18.50;99.90;;;;;;5034310;28;20222;-50
2021/07/27 06:49:20;;;;;;;20.73;13.50;;;18.60;99.90;;;;;;5036190;28;20667;-51
2021/07/27 06:51:47;;;;;;;22.13;14.67;;;18.70;99.90;;;;;;5034984;28;20297;-51
2021/07/27 06:54:14;;;;;;;23.87;15.53;;;18.60;99.90;;;;;;5035353;28;20202;-50
2021/07/27 06:56:43;;;;;;;22.47;14.57;;;18.60;99.90;;;;;;5036170;28;20214;-51
2021/07/27 06:59:10;;;;;;;23.57;15.63;;;18.70;99.90;;;;;;5036887;28;20212;-51
2021/07/27 07:01:37;;;;;;;25.13;14.17;;;18.70;99.90;;;;;;5035064;28;20321;-51
2021/07/27 07:04:05;;;;;;;24.40;15.17;;;18.60;99.90;;;;;;5036964;28;20290;-51
2021/07/27 07:06:31;;;;;;;26.90;15.57;;;18.70;99.90;;;;;;5035664;28;20203;-51
2021/07/27 07:08:58;;;;;;;24.13;14.70;;;18.90;99.90;;;;;;5026627;28;20337;-50
2021/07/27 07:11:27;;;;;;;26.90;15.43;;;18.80;99.90;;;;;;5033707;28;20288;-51
2021/07/27 07:13:54;;;;;;;22.83;15.50;;;18.70;99.90;;;;;;5035087;28;20652;-50
2021/07/27 07:16:21;;;;;;;27.53;15.73;;;18.50;99.90;;;;;;5032484;28;20212;-51
2021/07/27 07:18:48;;;;;;;27.03;15.17;;;18.50;99.90;;;;;;5022451;28;20238;-50
2021/07/27 07:21:15;;;;;;;26.00;15.73;;;18.60;99.90;;;;;;5036139;28;20308;-51
2021/07/27 07:23:42;;;;;;;24.90;16.13;;;18.60;99.90;;;;;;5039241;28;20204;-51
2021/07/27 07:26:09;;;;;;;26.27;16.13;;;18.60;99.90;;;;;;5037939;28;20206;-51
2021/07/27 07:28:37;;;;;;;25.40;16.70;;;18.70;99.90;;;;;;5036742;28;20281;-50
2021/07/27 07:31:08;;;;;;;27.03;17.07;;;18.70;99.90;;;;;;5039312;28;20276;-51
2021/07/27 07:33:35;;;;;;;26.97;17.33;;;18.70;99.90;;;;;;5037695;28;20212;-51
2021/07/27 07:36:13;;;;;;;24.40;16.37;;;18.80;99.90;;;;;;5041397;28;20210;-51
2021/07/27 07:38:41;;;;;;;26.10;16.13;;;18.70;99.90;;;;;;5042401;28;20260;-51
2021/07/27 07:41:09;;;;;;;23.83;15.43;;;18.80;99.90;;;;;;5043070;28;20251;-51
2021/07/27 07:43:37;;;;;;;24.50;16.47;;;18.90;99.90;;;;;;5040849;28;20231;-51
2021/07/27 07:46:04;;;;;;;22.67;15.73;;;19.00;99.90;;;;;;5039972;28;20321;-51
2021/07/27 07:48:31;;;;;;;24.53;15.57;;;19.10;99.90;;;;;;5040800;28;20210;-50
2021/07/27 07:50:58;;;;;;;20.93;15.07;;;19.20;99.90;;;;;;5042471;28;20286;-51
2021/07/27 07:53:24;;;;;;;37.53;16.57;;;19.40;99.90;;;;;;5041249;28;20604;-51
2021/07/27 07:55:51;;;;;;;25.70;15.57;;;19.70;99.90;;;;;;5041718;28;20205;-51
2021/07/27 07:58:18;;;;;;;21.07;15.47;;;19.70;99.90;;;;;;5042526;28;20295;-50
2021/07/27 08:00:45;;;;;;;25.37;16.57;;;19.90;99.90;;;;;;5031842;28;20219;-50
2021/07/27 08:03:12;;;;;;;25.77;16.07;;;19.70;99.90;;;;;;5041117;28;20205;-50
2021/07/27 08:05:38;;;;;;;20.97;14.87;;;19.60;99.90;;;;;;5044824;28;20658;-51
2021/07/27 08:08:05;;;;;;;21.80;14.33;;;19.60;99.90;;;;;;5042598;28;20304;-51
2021/07/27 08:10:33;;;;;;;17.63;13.40;;;19.70;99.90;;;;;;5043975;28;20336;-51
2021/07/27 08:13:00;;;;;;;21.07;14.67;;;19.70;99.90;;;;;;5045606;28;20211;-51
2021/07/27 08:15:27;;;;;;;22.47;14.47;;;19.90;99.90;;;;;;5042309;28;20230;-51
2021/07/27 08:17:54;;;;;;;19.47;14.47;;;19.90;99.90;;;;;;5044774;28;20258;-51
2021/07/27 08:20:22;;;;;;;23.23;13.87;;;19.90;99.90;;;;;;5046392;28;20596;-51
2021/07/27 08:22:49;;;;;;;20.17;14.10;;;20.20;99.90;;;;;;5046234;28;20361;-51
2021/07/27 08:25:16;;;;;;;19.40;12.73;;;20.60;99.90;;;;;;5043647;28;20296;-50
2021/07/27 08:27:44;;;;;;;18.67;11.80;;;20.80;99.90;;;;;;5043402;28;20227;-51
2021/07/27 08:30:17;;;;;;;17.60;12.73;;;20.80;99.90;;;;;;5043317;28;20302;-51
2021/07/27 08:32:44;;;;;;;18.93;13.20;;;20.70;99.90;;;;;;5045050;28;20707;-51
2021/07/27 08:35:12;;;;;;;16.97;12.77;;;20.80;99.90;;;;;;5045012;28;20203;-51
2021/07/27 08:37:39;;;;;;;16.47;12.23;;;20.80;99.90;;;;;;5045988;28;20267;-50
2021/07/27 08:40:07;;;;;;;18.13;13.03;;;20.60;99.90;;;;;;5044904;28;20201;-51
2021/07/27 08:42:35;;;;;;;16.10;13.50;;;20.50;99.90;;;;;;5045975;28;20338;-51
2021/07/27 08:45:04;;;;;;;15.13;12.80;;;20.40;99.90;;;;;;5041481;28;20291;-51
2021/07/27 08:47:32;;;;;;;17.50;14.03;;;20.60;99.90;;;;;;5040509;28;20291;-50
2021/07/27 08:50:05;;;;;;;16.90;12.83;;;20.80;99.90;;;;;;5042803;28;20625;-51
2021/07/27 08:52:32;;;;;;;17.63;12.27;;;21.00;99.90;;;;;;5036507;28;20992;-50
2021/07/27 08:54:59;;;;;;;19.73;13.57;;;21.30;99.90;;;;;;5042074;28;20310;-51
2021/07/27 08:57:26;;;;;;;18.10;14.20;;;21.40;99.90;;;;;;5037277;28;20290;-51
2021/07/27 08:59:53;;;;;;;16.23;13.23;;;21.30;99.90;;;;;;5042480;28;20573;-51
2021/07/27 09:02:28;;;;;;;15.97;12.67;;;21.20;99.90;;;;;;5039321;28;20704;-50
2021/07/27 09:05:09;;;;;;;14.07;12.53;;;21.40;99.90;;;;;;5043031;28;20264;-51
2021/07/27 09:07:36;;;;;;;18.30;13.17;;;21.40;99.90;;;;;;5038582;28;20553;-51
2021/07/27 09:10:17;;;;;;;15.20;11.97;;;21.50;99.90;;;;;;5041487;28;20200;-51
2021/07/27 09:13:07;;;;;;;14.10;11.03;;;21.60;99.90;;;;;;5042115;28;20301;-51
2021/07/27 09:15:41;;;;;;;15.90;12.00;;;21.40;99.90;;;;;;5041383;28;20242;-51
2021/07/27 09:18:15;;;;;;;16.50;12.20;;;21.40;99.90;;;;;;5040620;28;20216;-51
2021/07/27 09:20:48;;;;;;;14.90;11.80;;;21.10;99.90;;;;;;5040024;28;20357;-51
2021/07/27 09:23:17;;;;;;;14.17;11.23;;;20.90;99.90;;;;;;5041093;28;20199;-51
2021/07/27 09:25:47;;;;;;;12.93;10.90;;;20.90;99.90;;;;;;5042376;28;20231;-51
2021/07/27 09:28:14;;;;;;;15.43;11.10;;;20.70;99.90;;;;;;5039824;28;20430;-51
2021/07/27 09:30:42;;;;;;;27.20;11.60;;;21.10;99.90;;;;;;5042455;28;20272;-51
2021/07/27 09:33:12;;;;;;;13.10;10.60;;;21.20;99.90;;;;;;5039063;28;20239;-51
2021/07/27 09:35:40;;;;;;;13.47;10.43;;;21.60;99.90;;;;;;5044738;28;20308;-51
2021/07/27 09:38:10;;;;;;;13.20;9.60;;;21.90;99.90;;;;;;5045717;28;20246;-51
2021/07/27 09:40:50;;;;;;;24.67;12.37;;;21.80;99.90;;;;;;5043312;28;20306;-51
2021/07/27 09:43:38;;;;;;;12.70;9.50;;;21.60;99.90;;;;;;5040755;28;20561;-51
2021/07/27 09:46:05;;;;;;;14.80;9.63;;;21.30;99.90;;;;;;5038841;28;20232;-51
2021/07/27 09:48:35;;;;;;;12.03;9.60;;;21.30;99.90;;;;;;5044976;28;20200;-51
2021/07/27 09:51:03;;;;;;;15.43;10.67;;;21.20;99.90;;;;;;5042985;28;20273;-49
2021/07/27 09:53:30;;;;;;;14.30;10.37;;;21.10;99.90;;;;;;5037049;28;20203;-49
2021/07/27 09:55:58;;;;;;;10.53;9.13;;;21.10;99.90;;;;;;5041628;28;20224;-50
2021/07/27 09:58:28;;;;;;;10.10;8.90;;;21.00;99.90;;;;;;5045938;28;20208;-49
2021/07/27 10:01:20;;;;;;;12.93;9.23;;;21.10;99.90;;;;;;5041648;28;20286;-49
2021/07/27 10:03:59;;;;;;;10.03;8.87;;;21.10;99.90;;;;;;5042319;28;20331;-49
2021/07/27 10:06:29;;;;;;;18.63;9.90;;;20.90;99.90;;;;;;5046504;28;20698;-49
2021/07/27 10:09:01;;;;;;;10.30;9.13;;;20.90;99.90;;;;;;5040123;28;20270;-49
2021/07/27 10:11:41;;;;;;;17.13;10.30;;;21.00;99.90;;;;;;5042979;28;20262;-49
2021/07/27 10:14:13;;;;;;;12.93;9.77;;;21.10;99.90;;;;;;5044075;28;20312;-49
2021/07/27 10:16:41;;;;;;;12.93;10.47;;;21.00;99.90;;;;;;5041851;28;20323;-50
2021/07/27 10:19:22;;;;;;;14.03;11.07;;;20.80;99.90;;;;;;5039159;28;20211;-50
2021/07/27 10:22:04;;;;;;;15.37;10.83;;;20.80;99.90;;;;;;5040065;28;20311;-49
2021/07/27 10:24:45;;;;;;;15.73;11.33;;;20.70;99.90;;;;;;5043357;28;20302;-50
2021/07/27 10:27:24;;;;;;;15.10;10.57;;;20.60;99.90;;;;;;5043153;28;20251;-50
2021/07/27 10:30:07;;;;;;;14.23;10.07;;;20.70;99.90;;;;;;5044326;28;20206;-50
2021/07/27 10:32:33;;;;;;;12.37;10.60;;;20.70;99.90;;;;;;5044032;28;20340;-50
2021/07/27 10:35:00;;;;;;;13.23;10.70;;;20.60;99.90;;;;;;5042743;28;20213;-50
2021/07/27 10:37:36;;;;;;;10.50;6.80;;;20.50;99.90;;;;;;5045520;28;20270;-50
2021/07/27 10:40:04;;;;;;;6.07;4.87;;;20.00;99.90;;;;;;5042954;28;20259;-51
2021/07/27 10:42:40;;;;;;;5.97;4.90;;;19.50;99.90;;;;;;5038776;28;20315;-50
2021/07/27 10:45:17;;;;;;;7.57;6.20;;;18.70;99.90;;;;;;5041856;28;20292;-50
2021/07/27 10:47:52;;;;;;;10.53;6.70;;;18.40;99.90;;;;;;5042190;28;20642;-50
2021/07/27 10:50:28;;;;;;;7.93;6.23;;;18.50;99.90;;;;;;5032591;28;20250;-50
2021/07/27 10:53:18;;;;;;;9.67;6.57;;;18.10;99.90;;;;;;5042875;28;20308;-50
2021/07/27 10:55:45;;;;;;;10.50;7.20;;;17.90;99.90;;;;;;5040697;28;20227;-50
2021/07/27 10:58:21;;;;;;;11.17;6.20;;;18.20;99.90;;;;;;5040993;28;20208;-50
2021/07/27 11:00:48;;;;;;;7.57;5.47;;;18.00;99.90;;;;;;5039491;28;20646;-50
2021/07/27 11:03:25;;;;;;;8.23;4.80;;;17.70;99.90;;;;;;5040204;28;20264;-50
2021/07/27 11:06:03;;;;;;;5.23;3.73;;;17.80;99.90;;;;;;5040785;28;20561;-50
2021/07/27 11:08:30;;;;;;;5.77;3.70;;;17.90;99.90;;;;;;5035789;28;20289;-50
2021/07/27 11:11:07;;;;;;;5.10;3.83;;;18.00;99.90;;;;;;5028227;28;20309;-50
2021/07/27 11:13:36;;;;;;;6.63;4.20;;;18.20;99.90;;;;;;5029694;28;20205;-50
2021/07/27 11:16:03;;;;;;;5.20;4.23;;;17.90;99.90;;;;;;5031369;28;20242;-50
2021/07/27 11:18:30;;;;;;;6.10;3.97;;;18.10;99.90;;;;;;5031282;28;20291;-50
2021/07/27 11:20:59;;;;;;;4.37;3.53;;;18.50;99.90;;;;;;5031458;28;20243;-50
2021/07/27 11:23:32;;;;;;;6.07;3.43;;;18.60;99.90;;;;;;5033557;28;20646;-50
2021/07/27 11:25:59;;;;;;;5.90;3.43;;;18.40;99.90;;;;;;5033426;28;20565;-50
2021/07/27 11:28:34;;;;;;;4.40;3.50;;;18.50;99.90;;;;;;5034093;28;20233;-50
2021/07/27 11:31:01;;;;;;;4.70;3.53;;;19.10;99.90;;;;;;5034054;28;20642;-51
2021/07/27 11:33:28;;;;;;;5.00;3.30;;;19.60;99.90;;;;;;5029854;28;20307;-50
2021/07/27 11:35:56;;;;;;;4.30;3.30;;;20.00;99.90;;;;;;5030878;28;20330;-50
2021/07/27 11:38:31;;;;;;;5.70;2.80;;;20.10;99.90;;;;;;5033796;28;20300;-50
2021/07/27 11:41:12;;;;;;;4.47;3.23;;;20.10;99.90;;;;;;5036083;28;20309;-50
2021/07/27 11:43:41;;;;;;;6.23;2.93;;;20.70;99.90;;;;;;5041553;28;20235;-50
2021/07/27 11:46:19;;;;;;;4.57;2.60;;;20.60;99.90;;;;;;5042574;28;20261;-50
2021/07/27 11:48:53;;;;;;;4.10;2.87;;;21.00;99.90;;;;;;5040817;28;20233;-50
2021/07/27 11:51:30;;;;;;;4.63;2.90;;;21.00;99.90;;;;;;5041235;28;20211;-50
2021/07/27 11:53:58;;;;;;;4.20;3.43;;;21.10;99.90;;;;;;5024355;28;20206;-50
2021/07/27 11:56:25;;;;;;;3.80;3.20;;;21.30;99.90;;;;;;5029043;28;20240;-50
2021/07/27 11:59:05;;;;;;;4.47;3.07;;;21.20;99.90;;;;;;5035627;28;20656;-50
2021/07/27 12:01:42;;;;;;;4.57;3.23;;;21.00;99.90;;;;;;5034046;28;20263;-50
2021/07/27 12:04:10;;;;;;;4.20;3.67;;;21.10;99.90;;;;;;5031477;28;20227;-50
2021/07/27 12:06:54;;;;;;;6.13;4.27;;;21.30;99.90;;;;;;5037579;28;20746;-50
2021/07/27 12:09:24;;;;;;;5.70;4.40;;;21.50;99.90;;;;;;5036404;28;20208;-50
2021/07/27 12:11:51;;;;;;;5.03;4.53;;;21.60;99.90;;;;;;5044846;28;20210;-50
2021/07/27 12:14:19;;;;;;;7.70;4.80;;;21.50;99.90;;;;;;5045689;28;20314;-50
2021/07/27 12:16:48;;;;;;;6.37;4.70;;;21.70;99.90;;;;;;5040892;28;20283;-50
2021/07/27 12:19:15;;;;;;;8.17;4.97;;;22.10;99.90;;;;;;5041188;28;20306;-50
2021/07/27 12:21:42;;;;;;;6.87;4.43;;;22.30;99.90;;;;;;5045535;28;20645;-50
2021/07/27 12:24:08;;;;;;;5.33;4.60;;;22.30;99.90;;;;;;5044210;28;20206;-50
2021/07/27 12:26:36;;;;;;;6.47;4.87;;;22.70;99.90;;;;;;5032112;28;20682;-50
2021/07/27 12:29:04;;;;;;;7.37;5.50;;;22.80;99.90;;;;;;5039308;28;20299;-50
2021/07/27 12:31:31;;;;;;;8.60;5.03;;;23.00;99.90;;;;;;5040864;28;20263;-50
2021/07/27 12:33:58;;;;;;;6.83;5.50;;;23.20;99.90;;;;;;5042473;28;20266;-50
2021/07/27 12:36:25;;;;;;;9.27;6.53;;;23.40;99.50;;;;;;5041039;28;20218;-51
2021/07/27 12:38:51;;;;;;;7.43;6.40;;;23.00;99.90;;;;;;5043752;28;20208;-50
2021/07/27 12:41:18;;;;;;;8.83;6.60;;;23.30;99.90;;;;;;5043362;28;20690;-50
2021/07/27 12:43:46;;;;;;;9.87;6.70;;;23.20;99.90;;;;;;5038007;28;20231;-50
2021/07/27 12:46:12;;;;;;;7.27;6.07;;;23.30;99.90;;;;;;5036378;28;20200;-50
2021/07/27 12:48:39;;;;;;;8.13;6.70;;;23.60;99.90;;;;;;5040599;28;20696;-50
2021/07/27 12:51:07;;;;;;;6.90;6.20;;;23.20;99.90;;;;;;5030447;28;20261;-50
2021/07/27 12:53:33;;;;;;;11.97;7.27;;;23.20;99.90;;;;;;5038468;28;20870;-50
2021/07/27 12:56:00;;;;;;;11.30;7.30;;;23.40;99.90;;;;;;5041143;28;20221;-50
2021/07/27 12:58:27;;;;;;;10.20;7.33;;;22.60;99.90;;;;;;5037993;28;20701;-50
2021/07/27 13:00:54;;;;;;;11.07;7.37;;;22.50;99.90;;;;;;5038224;28;20701;-50